createdAt,value
2024-03-15T00:00:29.610Z,94501.00
2024-03-15T00:01:29.667Z,94501.00
2024-03-15T00:02:29.738Z,94503.00
2024-03-15T00:03:29.902Z,94502.00
2024-03-15T00:04:29.865Z,94501.00
2024-03-15T00:05:29.958Z,94503.00
2024-03-15T00:06:30.044Z,94504.00
2024-03-15T00:07:30.047Z,94505.00
2024-03-15T00:08:30.118Z,94504.00
2024-03-15T00:09:30.210Z,94504.00
2024-03-15T00:10:30.266Z,94504.00
2024-03-15T00:11:30.327Z,94504.00
2024-03-15T00:12:30.446Z,94503.00
2024-03-15T00:13:30.479Z,94503.00
2024-03-15T00:14:30.512Z,94502.00
2024-03-15T00:15:30.576Z,94503.00
2024-03-15T00:16:30.635Z,94504.00
2024-03-15T00:17:30.708Z,94502.00
2024-03-15T00:18:30.798Z,94504.00
2024-03-15T00:19:30.855Z,94503.00
2024-03-15T00:20:30.954Z,94505.00
2024-03-15T00:21:30.997Z,94503.00
2024-03-15T00:22:31.016Z,94507.00
2024-03-15T00:23:31.083Z,94505.00
2024-03-15T00:24:31.244Z,94505.00
2024-03-15T00:25:31.190Z,94507.00
2024-03-15T00:26:32.700Z,94507.00
2024-03-15T00:27:31.390Z,94508.00
2024-03-15T00:28:31.402Z,94508.00
2024-03-15T00:29:31.477Z,94511.00
2024-03-15T00:30:31.617Z,94510.00
2024-03-15T00:31:31.613Z,94511.00
2024-03-15T00:32:31.693Z,94510.00
2024-03-15T00:33:31.770Z,94510.00
2024-03-15T00:34:31.836Z,94511.00
2024-03-15T00:35:31.856Z,94512.00
2024-03-15T00:36:32.002Z,94511.00
2024-03-15T00:37:32.010Z,94510.00
2024-03-15T00:38:32.025Z,94513.00
2024-03-15T00:39:32.172Z,94512.00
2024-03-15T00:40:32.165Z,94514.00
2024-03-15T00:41:32.225Z,94513.00
2024-03-15T00:42:32.290Z,94513.00
2024-03-15T00:43:32.308Z,94513.00
2024-03-15T00:44:32.429Z,94513.00
2024-03-15T00:45:32.521Z,94513.00
2024-03-15T00:46:32.510Z,94511.00
2024-03-15T00:47:32.652Z,94511.00
2024-03-15T00:48:32.734Z,94510.00
2024-03-15T00:49:32.726Z,94510.00
2024-03-15T00:50:32.789Z,94511.00
2024-03-15T00:51:32.897Z,94510.00
2024-03-15T00:52:32.892Z,94510.00
2024-03-15T00:53:32.945Z,94510.00
2024-03-15T00:54:33.093Z,94510.00
2024-03-15T00:55:33.092Z,94510.00
2024-03-15T00:56:33.150Z,94507.00
2024-03-15T00:57:33.235Z,94506.00
2024-03-15T00:58:33.248Z,94507.00
2024-03-15T00:59:33.302Z,94506.00
2024-03-15T01:00:33.405Z,94504.00
2024-03-15T01:01:33.514Z,94505.00
2024-03-15T01:02:34.004Z,94504.00
2024-03-15T01:03:33.652Z,94503.00
2024-03-15T01:04:33.636Z,94503.00
2024-03-15T01:05:33.720Z,94502.00
2024-03-15T01:06:33.846Z,94501.00
2024-03-15T01:07:33.858Z,94501.00
2024-03-15T01:08:33.918Z,94499.00
2024-03-15T01:09:34.030Z,94499.00
2024-03-15T01:10:34.040Z,94494.00
2024-03-15T01:11:34.158Z,94494.00
2024-03-15T01:12:34.162Z,94494.00
2024-03-15T01:13:34.215Z,94495.00
2024-03-15T01:14:34.284Z,94495.00
2024-03-15T01:15:34.404Z,94496.00
2024-03-15T01:16:34.373Z,94497.00
2024-03-15T01:17:34.484Z,94496.00
2024-03-15T01:18:34.647Z,94496.00
2024-03-15T01:19:34.563Z,94497.00
2024-03-15T01:20:34.597Z,94496.00
2024-03-15T01:21:34.686Z,94496.00
2024-03-15T01:22:34.704Z,94494.00
2024-03-15T01:23:34.771Z,94491.00
2024-03-15T01:24:34.821Z,94491.00
2024-03-15T01:25:34.850Z,94491.00
2024-03-15T01:26:34.928Z,94490.00
2024-03-15T01:27:35.098Z,94489.00
2024-03-15T01:28:34.994Z,94488.00
2024-03-15T01:29:35.068Z,94487.00
2024-03-15T01:30:35.125Z,94487.00
2024-03-15T01:31:35.170Z,94489.00
2024-03-15T01:32:35.235Z,94490.00
2024-03-15T01:33:35.288Z,94491.00
2024-03-15T01:34:35.325Z,94491.00
2024-03-15T01:35:35.347Z,94491.00
2024-03-15T01:36:35.460Z,94489.00
2024-03-15T01:37:35.442Z,94488.00
2024-03-15T01:38:35.507Z,94486.00
2024-03-15T01:39:35.596Z,94484.00
2024-03-15T01:40:35.616Z,94487.00
2024-03-15T01:41:35.656Z,94485.00
2024-03-15T01:42:35.727Z,94483.00
2024-03-15T01:43:35.775Z,94482.00
2024-03-15T01:44:35.856Z,94485.00
2024-03-15T01:45:35.990Z,94485.00
2024-03-15T01:46:35.961Z,94484.00
2024-03-15T01:47:36.084Z,94483.00
2024-03-15T01:48:36.061Z,94483.00
2024-03-15T01:49:36.103Z,94485.00
2024-03-15T01:50:36.146Z,94485.00
2024-03-15T01:51:36.285Z,94487.00
2024-03-15T01:52:36.280Z,94489.00
2024-03-15T01:53:37.359Z,94488.00
2024-03-15T01:54:36.449Z,94487.00
2024-03-15T01:55:36.434Z,94490.00
2024-03-15T01:56:36.489Z,94492.00
2024-03-15T01:57:36.596Z,94489.00
2024-03-15T01:58:36.599Z,94489.00
2024-03-15T01:59:36.659Z,94490.00
2024-03-15T02:00:36.743Z,94489.00
2024-03-15T02:01:36.803Z,94490.00
2024-03-15T02:02:36.780Z,94492.00
2024-03-15T02:03:36.856Z,94493.00
2024-03-15T02:04:36.886Z,94494.00
2024-03-15T02:05:36.921Z,94495.00
2024-03-15T02:06:37.028Z,94492.00
2024-03-15T02:07:37.012Z,94491.00
2024-03-15T02:08:37.133Z,94491.00
2024-03-15T02:09:37.151Z,94491.00
2024-03-15T02:10:37.165Z,94489.00
2024-03-15T02:11:37.242Z,94488.00
2024-03-15T02:12:37.302Z,94488.00
2024-03-15T02:13:37.314Z,94484.00
2024-03-15T02:14:37.373Z,94484.00
2024-03-15T02:15:37.497Z,94483.00
2024-03-15T02:16:37.456Z,94484.00
2024-03-15T02:17:37.564Z,94486.00
2024-03-15T02:18:37.655Z,94487.00
2024-03-15T02:19:37.665Z,94486.00
2024-03-15T02:20:37.664Z,94487.00
2024-03-15T02:21:37.751Z,94490.00
2024-03-15T02:22:37.799Z,94490.00
2024-03-15T02:23:37.843Z,94490.00
2024-03-15T02:24:38.010Z,94490.00
2024-03-15T02:25:37.958Z,94488.00
2024-03-15T02:26:38.033Z,94487.00
2024-03-15T02:27:38.175Z,94490.00
2024-03-15T02:28:38.178Z,94488.00
2024-03-15T02:29:38.221Z,94488.00
2024-03-15T02:30:38.322Z,94489.00
2024-03-15T02:31:38.340Z,94489.00
2024-03-15T02:32:38.444Z,94490.00
2024-03-15T02:33:38.457Z,94492.00
2024-03-15T02:34:38.491Z,94493.00
2024-03-15T02:35:38.567Z,94496.00
2024-03-15T02:36:38.689Z,94498.00
2024-03-15T02:37:38.694Z,94494.00
2024-03-15T02:38:38.822Z,94495.00
2024-03-15T02:39:38.838Z,94496.00
2024-03-15T02:40:38.871Z,94498.00
2024-03-15T02:41:38.923Z,94499.00
2024-03-15T02:42:39.070Z,94501.00
2024-03-15T02:43:39.072Z,94502.00
2024-03-15T02:44:39.143Z,94504.00
2024-03-15T02:45:39.214Z,94504.00
2024-03-15T02:46:39.231Z,94504.00
2024-03-15T02:47:39.297Z,94506.00
2024-03-15T02:48:39.344Z,94506.00
2024-03-15T02:49:39.399Z,94504.00
2024-03-15T02:50:39.420Z,94506.00
2024-03-15T02:51:39.551Z,94506.00
2024-03-15T02:52:39.544Z,94508.00
2024-03-15T02:53:39.612Z,94508.00
2024-03-15T02:54:39.684Z,94509.00
2024-03-15T02:55:39.741Z,94508.00
2024-03-15T02:56:39.795Z,94512.00
2024-03-15T02:57:39.866Z,94514.00
2024-03-15T02:58:39.902Z,94515.00
2024-03-15T02:59:39.986Z,94516.00
2024-03-15T03:00:40.054Z,94516.00
2024-03-15T03:01:40.126Z,94521.00
2024-03-15T03:02:40.135Z,94522.00
2024-03-15T03:03:40.258Z,94523.00
2024-03-15T03:04:40.259Z,94523.00
2024-03-15T03:05:40.331Z,94526.00
2024-03-15T03:06:40.468Z,94527.00
2024-03-15T03:07:40.479Z,94529.00
2024-03-15T03:08:40.553Z,94530.00
2024-03-15T03:09:40.606Z,94529.00
2024-03-15T03:10:40.647Z,94529.00
2024-03-15T03:11:40.708Z,94532.00
2024-03-15T03:12:40.878Z,94532.00
2024-03-15T03:13:40.894Z,94532.00
2024-03-15T03:14:40.901Z,94531.00
2024-03-15T03:15:40.970Z,94532.00
2024-03-15T03:16:41.010Z,94531.00
2024-03-15T03:17:41.092Z,94533.00
2024-03-15T03:18:41.197Z,94531.00
2024-03-15T03:19:41.178Z,94532.00
2024-03-15T03:20:41.239Z,94534.00
2024-03-15T03:21:41.327Z,94536.00
2024-03-15T03:22:41.374Z,94538.00
2024-03-15T03:23:41.406Z,94539.00
2024-03-15T03:24:41.486Z,94540.00
2024-03-15T03:25:41.514Z,94540.00
2024-03-15T03:26:41.591Z,94540.00
2024-03-15T03:27:41.679Z,94543.00
2024-03-15T03:28:41.704Z,94542.00
2024-03-15T03:29:41.756Z,94543.00
2024-03-15T03:30:41.878Z,94542.00
2024-03-15T03:31:41.859Z,94542.00
2024-03-15T03:32:41.926Z,94541.00
2024-03-15T03:33:42.063Z,94542.00
2024-03-15T03:34:42.019Z,94542.00
2024-03-15T03:35:42.096Z,94538.00
2024-03-15T03:36:42.189Z,94539.00
2024-03-15T03:37:42.220Z,94539.00
2024-03-15T03:38:42.285Z,94541.00
2024-03-15T03:39:42.359Z,94541.00
2024-03-15T03:40:42.435Z,94541.00
2024-03-15T03:41:42.469Z,94537.00
2024-03-15T03:42:42.608Z,94541.00
2024-03-15T03:43:42.620Z,94536.00
2024-03-15T03:44:42.796Z,94536.00
2024-03-15T03:45:43.109Z,94539.00
2024-03-15T03:46:42.833Z,94540.00
2024-03-15T03:47:42.884Z,94540.00
2024-03-15T03:48:43.042Z,94543.00
2024-03-15T03:49:43.009Z,94544.00
2024-03-15T03:50:43.077Z,94543.00
2024-03-15T03:51:43.249Z,94546.00
2024-03-15T03:52:43.231Z,94546.00
2024-03-15T03:53:43.541Z,94547.00
2024-03-15T03:54:43.387Z,94547.00
2024-03-15T03:55:43.424Z,94547.00
2024-03-15T03:56:43.474Z,94551.00
2024-03-15T03:57:45.745Z,94553.00
2024-03-15T03:58:43.532Z,94551.00
2024-03-15T03:59:43.532Z,94552.00
2024-03-15T04:00:43.599Z,94555.00
2024-03-15T04:01:43.580Z,94554.00
2024-03-15T04:02:43.541Z,94554.00
2024-03-15T04:03:43.646Z,94555.00
2024-03-15T04:04:43.549Z,94554.00
2024-03-15T04:05:43.562Z,94551.00
2024-03-15T04:06:43.595Z,94552.00
2024-03-15T04:07:43.553Z,94552.00
2024-03-15T04:08:43.565Z,94552.00
2024-03-15T04:09:43.682Z,94551.00
2024-03-15T04:10:43.575Z,94551.00
2024-03-15T04:11:43.580Z,94550.00
2024-03-15T04:12:43.680Z,94552.00
2024-03-15T04:13:43.601Z,94554.00
2024-03-15T04:14:51.047Z,94555.00
2024-03-15T04:15:44.640Z,94556.00
2024-03-15T04:16:43.615Z,94558.00
2024-03-15T04:17:43.595Z,94559.00
2024-03-15T04:18:43.601Z,94559.00
2024-03-15T04:19:43.621Z,94558.00
2024-03-15T04:20:43.574Z,94557.00
2024-03-15T04:21:43.970Z,94556.00
2024-03-15T04:22:43.579Z,94559.00
2024-03-15T04:23:43.632Z,94559.00
2024-03-15T04:24:43.618Z,94560.00
2024-03-15T04:25:43.592Z,94562.00
2024-03-15T04:26:43.584Z,94564.00
2024-03-15T04:27:43.687Z,94563.00
2024-03-15T04:28:43.678Z,94565.00
2024-03-15T04:29:43.732Z,94563.00
2024-03-15T04:30:43.848Z,94563.00
2024-03-15T04:31:43.797Z,94564.00
2024-03-15T04:32:43.922Z,94566.00
2024-03-15T04:33:43.901Z,94567.00
2024-03-15T04:34:43.897Z,94569.00
2024-03-15T04:35:43.940Z,94571.00
2024-03-15T04:36:43.977Z,94573.00
2024-03-15T04:37:44.006Z,94572.00
2024-03-15T04:38:44.032Z,94574.00
2024-03-15T04:39:44.050Z,94575.00
2024-03-15T04:40:44.062Z,94576.00
2024-03-15T04:41:44.074Z,94575.00
2024-03-15T04:42:44.385Z,94577.00
2024-03-15T04:43:44.097Z,94579.00
2024-03-15T04:44:44.111Z,94580.00
2024-03-15T04:45:44.166Z,94581.00
2024-03-15T04:46:44.119Z,94580.00
2024-03-15T04:47:44.188Z,94577.00
2024-03-15T04:48:44.223Z,94580.00
2024-03-15T04:49:44.164Z,94579.00
2024-03-15T04:50:44.180Z,94579.00
2024-03-15T04:51:44.230Z,94580.00
2024-03-15T04:52:44.185Z,94584.00
2024-03-15T04:53:51.880Z,94584.00
2024-03-15T04:54:51.917Z,94582.00
2024-03-15T04:55:51.906Z,94583.00
2024-03-15T04:56:51.909Z,94582.00
2024-03-15T04:57:52.389Z,94581.00
2024-03-15T04:58:51.909Z,94581.00
2024-03-15T04:59:51.887Z,94582.00
2024-03-15T05:00:52.007Z,94582.00
2024-03-15T05:01:51.971Z,94583.00
2024-03-15T05:02:52.639Z,94583.00
2024-03-15T05:03:51.953Z,94584.00
2024-03-15T05:04:51.923Z,94585.00
2024-03-15T05:05:51.895Z,94585.00
2024-03-15T05:06:51.928Z,94587.00
2024-03-15T05:07:51.897Z,94586.00
2024-03-15T05:09:00.916Z,94589.00
2024-03-15T05:09:52.974Z,94588.00
2024-03-15T05:10:52.145Z,94588.00
2024-03-15T05:11:51.953Z,94590.00
2024-03-15T05:12:51.999Z,94590.00
2024-03-15T05:13:51.935Z,94592.00
2024-03-15T05:14:51.922Z,94589.00
2024-03-15T05:15:51.986Z,94591.00
2024-03-15T05:16:51.958Z,94590.00
2024-03-15T05:17:52.007Z,94590.00
2024-03-15T05:18:52.064Z,94592.00
2024-03-15T05:19:52.072Z,94592.00
2024-03-15T05:20:52.082Z,94592.00
2024-03-15T05:21:52.162Z,94595.00
2024-03-15T05:22:52.201Z,94594.00
2024-03-15T05:23:52.267Z,94595.00
2024-03-15T05:24:52.376Z,94597.00
2024-03-15T05:25:52.397Z,94597.00
2024-03-15T05:26:52.428Z,94597.00
2024-03-15T05:27:52.584Z,94595.00
2024-03-15T05:28:52.470Z,94593.00
2024-03-15T05:29:52.490Z,94595.00
2024-03-15T05:30:52.593Z,94596.00
2024-03-15T05:31:52.558Z,94595.00
2024-03-15T05:32:52.601Z,94597.00
2024-03-15T05:33:52.709Z,94601.00
2024-03-15T05:34:52.591Z,94602.00
2024-03-15T05:35:52.617Z,94603.00
2024-03-15T05:36:52.698Z,94601.00
2024-03-15T05:37:52.658Z,94598.00
2024-03-15T05:38:52.685Z,94598.00
2024-03-15T05:39:52.760Z,94596.00
2024-03-15T05:40:52.683Z,94596.00
2024-03-15T05:41:52.668Z,94596.00
2024-03-15T05:42:52.746Z,94597.00
2024-03-15T05:43:52.690Z,94597.00
2024-03-15T05:44:52.701Z,94597.00
2024-03-15T05:45:52.812Z,94598.00
2024-03-15T05:46:52.764Z,94598.00
2024-03-15T05:47:52.933Z,94595.00
2024-03-15T05:48:52.845Z,94595.00
2024-03-15T05:49:52.801Z,94597.00
2024-03-15T05:50:52.831Z,94596.00
2024-03-15T05:51:52.888Z,94596.00
2024-03-15T05:52:52.865Z,94597.00
2024-03-15T05:53:52.888Z,94595.00
2024-03-15T05:54:52.961Z,94596.00
2024-03-15T05:55:52.928Z,94595.00
2024-03-15T05:56:52.942Z,94594.00
2024-03-15T05:57:53.054Z,94592.00
2024-03-15T05:58:52.977Z,94593.00
2024-03-15T05:59:52.983Z,94593.00
2024-03-15T06:00:53.152Z,94594.00
2024-03-15T06:01:53.062Z,94596.00
2024-03-15T06:02:53.155Z,94597.00
2024-03-15T06:03:53.077Z,94600.00
2024-03-15T06:04:53.042Z,94603.00
2024-03-15T06:05:53.044Z,94603.00
2024-03-15T06:06:53.126Z,94605.00
2024-03-15T06:07:54.060Z,94607.00
2024-03-15T06:08:53.105Z,94607.00
2024-03-15T06:09:53.122Z,94610.00
2024-03-15T06:10:53.098Z,94610.00
2024-03-15T06:11:53.159Z,94609.00
2024-03-15T06:12:53.121Z,94608.00
2024-03-15T06:13:53.139Z,94606.00
2024-03-15T06:14:53.187Z,94606.00
2024-03-15T06:15:53.156Z,94608.00
2024-03-15T06:16:53.203Z,94610.00
2024-03-15T06:17:53.217Z,94608.00
2024-03-15T06:18:53.285Z,94610.00
2024-03-15T06:19:53.202Z,94608.00
2024-03-15T06:20:54.394Z,94609.00
2024-03-15T06:21:53.385Z,94608.00
2024-03-15T06:22:53.257Z,94607.00
2024-03-15T06:23:53.235Z,94607.00
2024-03-15T06:24:53.359Z,94605.00
2024-03-15T06:25:53.257Z,94605.00
2024-03-15T06:26:57.041Z,94604.00
2024-03-15T06:27:53.404Z,94604.00
2024-03-15T06:28:53.362Z,94603.00
2024-03-15T06:29:53.350Z,94604.00
2024-03-15T06:30:53.381Z,94605.00
2024-03-15T06:31:53.300Z,94607.00
2024-03-15T06:32:53.751Z,94605.00
2024-03-15T06:33:53.378Z,94609.00
2024-03-15T06:34:53.288Z,94609.00
2024-03-15T06:35:53.317Z,94610.00
2024-03-15T06:36:53.357Z,94612.00
2024-03-15T06:37:53.307Z,94610.00
2024-03-15T06:38:53.296Z,94611.00
2024-03-15T06:39:53.425Z,94610.00
2024-03-15T07:45:38.711Z,94607.00
2024-03-15T07:46:38.745Z,94609.00
2024-03-15T07:47:38.697Z,94611.00
2024-03-15T07:48:38.693Z,94611.00
2024-03-15T07:49:38.688Z,94612.00
2024-03-15T07:50:39.977Z,94612.00
2024-03-15T07:51:38.801Z,94611.00
2024-03-15T07:52:38.697Z,94612.00
2024-03-15T07:53:38.790Z,94609.00
2024-03-15T07:54:38.804Z,94605.00
2024-03-15T07:55:38.695Z,94605.00
2024-03-15T07:56:38.762Z,94606.00
2024-03-15T07:57:38.751Z,94606.00
2024-03-15T07:58:38.699Z,94607.00
2024-03-15T07:59:38.722Z,94607.00
2024-03-15T08:09:26.949Z,94602.00
2024-03-15T08:10:26.935Z,94603.00
2024-03-15T08:11:26.912Z,94599.00
2024-03-15T08:12:26.980Z,94595.00
2024-03-15T08:13:27.112Z,94595.00
2024-03-15T08:14:26.874Z,94593.00
2024-03-15T08:15:26.959Z,94594.00
2024-03-15T08:16:26.882Z,94595.00
2024-03-15T08:17:26.919Z,94594.00
2024-03-15T08:18:27.061Z,94593.00
2024-03-15T08:19:26.933Z,94595.00
2024-03-15T08:20:26.897Z,94594.00
2024-03-15T08:21:26.948Z,94594.00
2024-03-15T08:22:26.963Z,94594.00
2024-03-15T08:23:26.952Z,94594.00
2024-03-15T08:24:26.966Z,94593.00
2024-03-15T08:25:26.889Z,94591.00
2024-03-15T08:26:26.905Z,94592.00
2024-03-15T08:27:26.954Z,94593.00
2024-03-15T08:28:27.060Z,94591.00
